Saffet Bey — TCUZ — position and weather

sailwx.info

Track history (hours):
 
Tides and Currents Weather Stations Pressure Air Temp Water Temp Dewpoint Dewpoint Depression Visibility Wind Speed Wind Dir Waves Ship Positions

Saffet Bey

Last reported at 2015-May-04 07:32 UTC. Time now 2015-May-05 00:13 UTC.
Position N 37°15' E 024°48'.

Length 164 m; draft 7.2 m.

Type: Cargo ship. MMSI: 271000419.

Date/timePositionNaut miles runAvg speedWind from/ knotsBaromVisibWave heightAir tempDewpointWater temp
2015-May-04 07:32N 37°15' E 024°48'1414.6
2015-May-04 06:33N 37°23' E 025°02'1515.1
2015-May-04 05:34N 37°32' E 025°17'26 1.4
2015-May-03 11:05N 37°51' E 025°40'714.0
2015-May-03 10:34N 37°46' E 025°34'1714.1
2015-May-03 09:21N 37°34' E 025°19'1114.1
2015-May-03 08:34N 37°27' E 025°08'1514.5
2015-May-03 07:33N 37°17' E 024°54'31711.3
2015-May-02 03:28N 39°50' E 018°59'  
2015-Apr-27 07:06N 37°15' E 024°48'814.7
2015-Apr-27 06:33N 37°19' E 024°56'1514.8
2015-Apr-27 05:33N 37°28' E 025°10'1514.7
2015-Apr-27 04:33N 37°38' E 025°25'1515.0
2015-Apr-27 03:33N 37°49' E 025°38'3 0.2
2015-Apr-26 11:09N 37°51' E 025°40'914.6
2015-Apr-26 10:32N 37°44' E 025°32'1514.7
2015-Apr-26 09:32N 37°34' E 025°19'1414.3
2015-Apr-26 08:33N 37°25' E 025°05'1514.7
2015-Apr-26 07:33N 37°16' E 024°51'  
Track history (hours):
 
Tides and Currents Weather Stations Pressure Air Temp Water Temp Dewpoint Dewpoint Depression Visibility Wind Speed Wind Dir Waves Ship Positions

Saffet Bey

Last reported at 2015-May-04 07:32 UTC. Time now 2015-May-05 00:13 UTC.
Position N 37°15' E 024°48'.

Length 164 m; draft 7.2 m.

Type: Cargo ship. MMSI: 271000419.

Date/timePositionNaut miles runAvg speedWind from/ knotsBaromVisibWave heightAir tempDewpointWater temp
2015-May-04 07:32N 37°15' E 024°48'1414.6
2015-May-04 06:33N 37°23' E 025°02'1515.1
2015-May-04 05:34N 37°32' E 025°17'26 1.4
2015-May-03 11:05N 37°51' E 025°40'714.0
2015-May-03 10:34N 37°46' E 025°34'1714.1
2015-May-03 09:21N 37°34' E 025°19'1114.1
2015-May-03 08:34N 37°27' E 025°08'1514.5
2015-May-03 07:33N 37°17' E 024°54'31711.3
2015-May-02 03:28N 39°50' E 018°59'  
2015-Apr-27 07:06N 37°15' E 024°48'814.7
2015-Apr-27 06:33N 37°19' E 024°56'1514.8
2015-Apr-27 05:33N 37°28' E 025°10'1514.7
2015-Apr-27 04:33N 37°38' E 025°25'1515.0
2015-Apr-27 03:33N 37°49' E 025°38'3 0.2
2015-Apr-26 11:09N 37°51' E 025°40'914.6
2015-Apr-26 10:32N 37°44' E 025°32'1514.7
2015-Apr-26 09:32N 37°34' E 025°19'1414.3
2015-Apr-26 08:33N 37°25' E 025°05'1514.7
2015-Apr-26 07:33N 37°16' E 024°51'  

Dump ship's entire track history